Terminal Aerodrome Forecast
Issued by NWS

Home | Current Version | Previous Version | Text Only | Print | Product List | Glossary On
Versions: 1 2 3 4 5 6 7 8 9 10 11 12 13 14 15 16 17 18 19 20 21 22 23 24 25 26 27 28 29 30 31 32 33 34 35 36 37 38
000
FTUS41 KBUF 202100 AAA
TAFJHW
TAF AMD
KJHW 202117Z 2021/2118 20010G18KT P6SM SCT035
     FM202300 19014KT P6SM SCT035 BKN100
     FM210500 20016KT P6SM SCT015 BKN025
     FM210900 20013KT 6SM -SHRA OVC012
     FM211200 20009KT 6SM -SHRA OVC003
     FM211600 20014KT 6SM -SHRA OVC012
      AMD LTD TO CLD VIS AND WIND=

USA.gov is the U.S. government's official web portal to all federal, state and local government web resources and services.